Time;durP1;ratioP1;P1;durP2;ratioP2;P2;SDS_P1;SDS_P2;PMS_P1;PMS_P2;Temp;Humidity;BMP_temperature;BMP_pressure;BME280_temperature;BME280_humidity;BME280_pressure;Samples;Min_cycle;Max_cycle;Signal;HPM_P1;HPM_P2
2022/10/23 00:01:25;;;;;;;16.42;6.78;;;11.10;99.90;;;;;;5092594;28;20047;-50
2022/10/23 00:03:53;;;;;;;13.93;6.25;;;11.20;99.90;;;;;;5090605;28;20055;-49
2022/10/23 00:06:19;;;;;;;14.65;6.30;;;11.20;99.90;;;;;;5090327;28;20043;-49
2022/10/23 00:08:48;;;;;;;17.58;7.03;;;11.30;99.90;;;;;;5092549;28;20048;-49
2022/10/23 00:11:18;;;;;;;12.10;5.30;;;11.10;99.90;;;;;;5092585;28;20032;-48
2022/10/23 00:13:44;;;;;;;18.60;7.93;;;11.00;99.90;;;;;;5073091;28;20047;-49
2022/10/23 00:16:10;;;;;;;20.70;7.55;;;11.10;99.90;;;;;;5072177;28;20054;-49
2022/10/23 00:18:37;;;;;;;17.00;7.85;;;11.20;99.90;;;;;;5070879;28;20048;-49
2022/10/23 00:21:05;;;;;;;12.65;6.85;;;11.10;99.90;;;;;;5073254;28;20072;-49
2022/10/23 00:23:30;;;;;;;16.02;6.75;;;11.30;99.90;;;;;;5072171;28;20044;-49
2022/10/23 00:25:56;;;;;;;18.00;7.53;;;11.20;99.90;;;;;;5076876;28;20105;-49
2022/10/23 00:28:22;;;;;;;17.42;7.97;;;11.20;99.90;;;;;;5092547;28;20472;-49
2022/10/23 00:30:48;;;;;;;14.07;6.95;;;11.20;99.90;;;;;;5092303;28;20395;-50
2022/10/23 00:33:13;;;;;;;15.10;6.00;;;11.10;99.90;;;;;;5090854;28;20070;-49
2022/10/23 00:35:40;;;;;;;14.85;7.45;;;11.10;99.90;;;;;;5092339;28;20097;-50
2022/10/23 00:38:07;;;;;;;18.33;7.57;;;11.20;99.90;;;;;;5092330;28;20043;-48
2022/10/23 00:40:33;;;;;;;18.73;7.63;;;11.30;99.90;;;;;;5072759;28;20031;-51
2022/10/23 00:42:59;;;;;;;12.93;7.05;;;11.20;99.90;;;;;;5083824;28;20036;-47
2022/10/23 00:45:27;;;;;;;16.30;7.70;;;11.10;99.90;;;;;;5075320;28;20072;-47
2022/10/23 00:47:54;;;;;;;20.42;7.55;;;11.20;99.90;;;;;;5071901;28;20040;-47
2022/10/23 00:50:23;;;;;;;13.93;6.88;;;11.20;99.90;;;;;;5072095;28;20044;-47
2022/10/23 00:52:51;;;;;;;12.23;6.57;;;11.20;99.90;;;;;;5071899;28;20139;-48
2022/10/23 00:55:20;;;;;;;17.23;8.25;;;11.20;99.90;;;;;;5071767;28;20562;-48
2022/10/23 00:57:48;;;;;;;13.55;6.10;;;11.20;99.90;;;;;;5071732;28;20079;-47
2022/10/23 01:00:21;;;;;;;16.40;8.55;;;11.00;99.90;;;;;;5085131;28;20032;-48
2022/10/23 01:02:47;;;;;;;14.30;7.68;;;11.00;99.90;;;;;;5091965;28;20472;-48
2022/10/23 01:05:13;;;;;;;19.70;9.18;;;10.90;99.90;;;;;;5092127;28;20047;-48
2022/10/23 01:08:07;;;;;;;17.35;9.20;;;11.00;99.90;;;;;;5092213;28;20535;-47
2022/10/23 01:10:35;;;;;;;20.73;9.88;;;11.00;99.90;;;;;;5090571;28;20090;-49
2022/10/23 01:13:11;;;;;;;24.40;9.77;;;11.00;99.90;;;;;;5091764;28;20073;-49
2022/10/23 01:15:56;;;;;;;16.10;8.10;;;10.90;99.90;;;;;;5092385;28;20040;-48
2022/10/23 01:18:48;;;;;;;15.15;7.47;;;10.90;99.90;;;;;;5095595;28;20059;-48
2022/10/23 01:21:38;;;;;;;17.00;8.15;;;10.90;99.90;;;;;;5092665;28;20048;-51
2022/10/23 01:24:23;;;;;;;15.85;8.65;;;10.80;99.90;;;;;;5095805;28;20048;-49
2022/10/23 01:26:51;;;;;;;17.10;8.63;;;11.00;99.90;;;;;;5095557;28;20127;-48
2022/10/23 01:29:37;;;;;;;15.75;9.30;;;11.10;99.90;;;;;;5095478;28;20043;-49
2022/10/23 01:32:09;;;;;;;16.83;10.52;;;10.90;99.90;;;;;;5095026;28;20086;-48
2022/10/23 01:34:58;;;;;;;20.48;11.10;;;10.80;99.90;;;;;;5094290;28;20064;-47
2022/10/23 01:37:30;;;;;;;20.67;11.25;;;10.90;99.90;;;;;;5095301;28;20097;-48
2022/10/23 01:40:02;;;;;;;24.70;12.00;;;10.80;99.90;;;;;;5080864;28;20032;-48
2022/10/23 01:42:34;;;;;;;17.48;10.93;;;10.80;99.90;;;;;;5076203;28;20309;-52
2022/10/23 01:45:20;;;;;;;24.67;12.13;;;10.90;99.90;;;;;;5074983;28;20036;-49
2022/10/23 01:47:48;;;;;;;20.23;11.85;;;10.80;99.90;;;;;;5075077;28;20044;-49
2022/10/23 01:50:15;;;;;;;18.65;11.52;;;11.00;99.90;;;;;;5075922;28;20048;-48
2022/10/23 01:52:41;;;;;;;18.02;11.15;;;10.80;99.90;;;;;;5074938;28;20037;-47
2022/10/23 01:55:10;;;;;;;20.55;12.32;;;10.90;99.90;;;;;;5073655;28;20044;-47
2022/10/23 01:57:38;;;;;;;20.17;11.70;;;10.90;99.90;;;;;;5074677;28;20048;-48
2022/10/23 02:00:10;;;;;;;20.08;12.40;;;10.90;99.90;;;;;;5088349;28;20117;-47
2022/10/23 02:02:39;;;;;;;20.73;13.10;;;11.00;99.90;;;;;;5093554;28;20047;-47
2022/10/23 02:05:14;;;;;;;19.10;12.55;;;11.00;99.90;;;;;;5093038;28;20135;-47
2022/10/23 02:07:40;;;;;;;16.73;11.68;;;11.10;99.90;;;;;;5094819;28;20039;-47
2022/10/23 02:10:08;;;;;;;19.75;11.50;;;10.90;99.90;;;;;;5094562;28;20655;-49
2022/10/23 02:12:51;;;;;;;19.85;11.85;;;11.00;99.90;;;;;;5094658;28;20043;-47
2022/10/23 02:15:17;;;;;;;18.88;11.23;;;10.90;99.90;;;;;;5094676;28;20046;-48
2022/10/23 02:17:57;;;;;;;18.80;11.45;;;11.00;99.90;;;;;;5094514;28;20039;-48
2022/10/23 02:20:33;;;;;;;18.77;11.73;;;11.00;99.90;;;;;;5094255;28;20036;-48
2022/10/23 02:23:10;;;;;;;16.42;11.07;;;11.00;99.90;;;;;;5088251;28;20044;-49
2022/10/23 02:25:49;;;;;;;17.92;11.50;;;10.90;99.90;;;;;;5074054;28;20047;-48
2022/10/23 02:28:18;;;;;;;17.38;10.70;;;10.80;99.90;;;;;;5073587;28;20094;-48
2022/10/23 02:30:48;;;;;;;18.33;10.80;;;10.80;99.90;;;;;;5074013;28;20040;-48
2022/10/23 02:33:14;;;;;;;17.25;11.52;;;10.80;99.90;;;;;;5074080;28;20451;-48
2022/10/23 02:35:40;;;;;;;16.40;11.45;;;10.70;99.90;;;;;;5074147;28;20516;-47
2022/10/23 02:38:26;;;;;;;18.50;12.50;;;10.90;99.90;;;;;;5073852;28;20075;-48
2022/10/23 02:40:53;;;;;;;18.02;11.38;;;10.90;99.90;;;;;;5073810;28;20109;-48
2022/10/23 02:43:34;;;;;;;16.20;11.43;;;10.80;99.90;;;;;;5078930;28;20403;-48
2022/10/23 02:46:23;;;;;;;16.83;12.53;;;10.70;99.90;;;;;;5075294;28;20049;-48
2022/10/23 02:49:33;;;;;;;21.25;12.38;;;10.80;99.90;;;;;;5073870;28;20036;-48
2022/10/23 02:52:33;;;;;;;17.25;13.00;;;10.90;99.90;;;;;;5073526;28;20043;-48
2022/10/23 02:55:04;;;;;;;17.20;12.30;;;10.80;99.90;;;;;;5069263;28;20052;-48
2022/10/23 02:58:15;;;;;;;19.67;12.38;;;10.80;99.90;;;;;;5073806;28;20383;-48
2022/10/23 03:00:47;;;;;;;16.67;12.02;;;10.70;99.90;;;;;;5068022;28;20044;-49
2022/10/23 03:03:21;;;;;;;17.48;12.43;;;10.80;99.90;;;;;;5073474;28;20044;-47
2022/10/23 03:05:46;;;;;;;20.77;12.40;;;10.70;99.90;;;;;;5073387;28;20075;-48
2022/10/23 03:08:13;;;;;;;20.60;12.90;;;10.70;99.90;;;;;;5073073;28;20068;-52
2022/10/23 03:10:40;;;;;;;21.30;13.65;;;10.80;99.90;;;;;;5071860;28;20036;-47
2022/10/23 03:13:07;;;;;;;18.40;13.15;;;11.00;99.90;;;;;;5073138;28;20068;-47
2022/10/23 03:15:32;;;;;;;17.63;13.45;;;10.80;99.90;;;;;;5073295;28;20064;-48
2022/10/23 03:17:58;;;;;;;18.20;13.75;;;10.70;99.90;;;;;;5071398;28;20492;-49
2022/10/23 03:20:24;;;;;;;20.08;13.00;;;10.90;99.90;;;;;;5073991;28;20036;-48
2022/10/23 03:22:49;;;;;;;19.83;12.95;;;10.70;99.90;;;;;;5073217;28;20076;-48
2022/10/23 03:25:15;;;;;;;20.55;14.02;;;10.60;99.90;;;;;;5073185;28;20048;-48
2022/10/23 03:27:40;;;;;;;18.38;13.30;;;10.90;99.90;;;;;;5072729;28;20052;-48
2022/10/23 03:30:07;;;;;;;21.13;13.63;;;10.90;99.90;;;;;;5072725;28;20070;-49
2022/10/23 03:32:32;;;;;;;19.55;14.18;;;10.90;99.90;;;;;;5087501;28;20069;-47
2022/10/23 03:34:58;;;;;;;23.33;13.48;;;10.90;99.90;;;;;;5083408;28;20147;-49
2022/10/23 03:37:24;;;;;;;22.88;13.90;;;10.70;99.90;;;;;;5072740;28;20048;-48
2022/10/23 03:39:50;;;;;;;19.83;14.20;;;11.00;99.90;;;;;;5085436;28;20040;-47
2022/10/23 03:42:15;;;;;;;20.77;13.82;;;10.90;99.90;;;;;;5073949;28;20081;-48
2022/10/23 03:44:41;;;;;;;21.40;14.80;;;11.10;99.90;;;;;;5072378;28;20151;-47
2022/10/23 03:47:08;;;;;;;22.85;14.55;;;11.00;99.90;;;;;;5072373;28;20127;-49
2022/10/23 03:49:34;;;;;;;23.83;14.40;;;11.20;99.90;;;;;;5072736;28;20393;-48
2022/10/23 03:52:00;;;;;;;22.75;14.63;;;11.20;99.90;;;;;;5072610;28;20401;-49
2022/10/23 03:54:27;;;;;;;22.02;14.23;;;11.00;99.90;;;;;;5072631;28;20040;-47
2022/10/23 03:56:53;;;;;;;21.83;14.32;;;11.30;99.90;;;;;;5072364;28;20492;-49
2022/10/23 03:59:19;;;;;;;21.55;14.52;;;11.00;99.90;;;;;;5078603;28;20032;-47
2022/10/23 04:01:45;;;;;;;22.98;14.45;;;11.00;99.90;;;;;;5090888;28;20032;-48
2022/10/23 04:04:11;;;;;;;19.50;13.45;;;11.00;99.90;;;;;;5091494;28;20477;-48
2022/10/23 04:06:37;;;;;;;23.50;13.30;;;10.90;99.90;;;;;;5092655;28;20047;-48
2022/10/23 04:09:03;;;;;;;25.85;13.65;;;11.10;99.90;;;;;;5092331;28;20044;-47
2022/10/23 04:11:29;;;;;;;19.98;13.63;;;11.20;99.90;;;;;;5092672;28;20051;-47
2022/10/23 04:13:55;;;;;;;21.30;13.57;;;10.90;99.90;;;;;;5091973;28;20450;-47
2022/10/23 04:16:21;;;;;;;21.45;14.60;;;10.90;99.90;;;;;;5092202;28;20044;-50
2022/10/23 04:18:46;;;;;;;25.10;15.63;;;11.20;99.90;;;;;;5092014;28;20053;-48
2022/10/23 04:21:12;;;;;;;23.75;15.57;;;11.20;99.90;;;;;;5072574;28;20123;-49
2022/10/23 04:23:38;;;;;;;23.42;15.95;;;10.90;99.90;;;;;;5092298;28;20085;-49
2022/10/23 04:26:04;;;;;;;29.13;16.48;;;11.20;99.90;;;;;;5092268;28;20024;-47
2022/10/23 04:28:29;;;;;;;24.52;16.05;;;10.90;99.90;;;;;;5092141;28;20040;-49
2022/10/23 04:30:55;;;;;;;24.90;14.70;;;10.90;99.90;;;;;;5092437;28;20161;-49
2022/10/23 04:33:22;;;;;;;27.15;15.65;;;10.90;99.90;;;;;;5092010;28;20071;-48
2022/10/23 04:35:48;;;;;;;21.70;15.57;;;11.00;99.90;;;;;;5092279;28;20036;-48
2022/10/23 04:38:13;;;;;;;29.00;16.58;;;11.00;99.90;;;;;;5092151;28;20043;-48
2022/10/23 04:40:39;;;;;;;25.55;16.17;;;11.10;99.90;;;;;;5072423;28;20039;-48
2022/10/23 04:43:04;;;;;;;25.42;16.20;;;11.10;99.90;;;;;;5073059;28;20399;-48
2022/10/23 04:45:30;;;;;;;25.73;15.52;;;11.20;99.90;;;;;;5072153;28;20505;-49
2022/10/23 04:47:56;;;;;;;26.55;16.50;;;11.10;99.90;;;;;;5072099;28;20401;-48
2022/10/23 04:50:22;;;;;;;23.05;15.05;;;10.80;99.90;;;;;;5071018;28;20499;-48
2022/10/23 04:52:52;;;;;;;25.02;16.10;;;11.00;99.90;;;;;;5075877;28;20040;-48
2022/10/23 04:55:17;;;;;;;25.80;16.60;;;10.90;99.90;;;;;;5075917;28;20146;-48
2022/10/23 04:57:43;;;;;;;23.65;15.75;;;10.80;99.90;;;;;;5074416;28;20082;-48
2022/10/23 05:00:13;;;;;;;22.00;14.93;;;11.10;99.90;;;;;;5089879;28;20040;-49
2022/10/23 05:02:38;;;;;;;25.83;15.73;;;11.00;99.90;;;;;;5094531;28;20036;-48
2022/10/23 05:05:05;;;;;;;24.45;15.93;;;11.20;99.90;;;;;;5075759;28;20101;-47
2022/10/23 05:07:31;;;;;;;22.63;15.45;;;10.80;99.90;;;;;;5075629;28;20056;-49
2022/10/23 05:09:56;;;;;;;23.60;15.13;;;11.00;99.90;;;;;;5076954;28;20033;-48
2022/10/23 05:12:24;;;;;;;19.88;14.52;;;11.10;99.90;;;;;;5095898;28;20043;-49
2022/10/23 05:14:50;;;;;;;24.75;15.02;;;11.10;99.90;;;;;;5095987;28;20044;-49
2022/10/23 05:17:24;;;;;;;23.90;15.13;;;11.10;99.90;;;;;;5095800;28;20110;-49
2022/10/23 05:19:56;;;;;;;24.50;15.90;;;11.10;99.90;;;;;;5095566;28;20075;-49
2022/10/23 05:22:26;;;;;;;25.05;17.17;;;11.10;99.90;;;;;;5095864;28;20040;-50
2022/10/23 05:24:52;;;;;;;25.02;15.95;;;11.00;99.90;;;;;;5095237;28;20067;-49
2022/10/23 05:27:18;;;;;;;23.05;14.90;;;11.00;99.90;;;;;;5077928;28;20386;-49
2022/10/23 05:29:44;;;;;;;21.25;15.57;;;10.80;99.90;;;;;;5073876;28;20069;-49
2022/10/23 05:32:12;;;;;;;24.27;15.70;;;11.10;99.90;;;;;;5075344;28;20111;-49
2022/10/23 05:34:38;;;;;;;29.40;15.18;;;11.10;99.90;;;;;;5075188;28;20048;-49
2022/10/23 05:37:07;;;;;;;25.17;15.57;;;11.00;99.90;;;;;;5075227;28;20049;-49
2022/10/23 05:39:33;;;;;;;26.20;15.80;;;11.00;99.90;;;;;;5086085;28;20043;-48
2022/10/23 05:41:59;;;;;;;26.75;17.33;;;11.00;99.90;;;;;;5095483;28;20040;-49
2022/10/23 05:44:24;;;;;;;28.30;16.60;;;10.90;99.90;;;;;;5095115;28;20543;-48
2022/10/23 05:46:50;;;;;;;23.20;15.98;;;11.00;99.90;;;;;;5085514;28;20102;-49
2022/10/23 05:49:16;;;;;;;31.23;19.17;;;10.60;99.90;;;;;;5074867;28;20048;-49
2022/10/23 05:51:41;;;;;;;22.88;16.63;;;10.90;99.90;;;;;;5075030;28;20032;-49
2022/10/23 05:54:08;;;;;;;23.70;16.40;;;10.60;99.90;;;;;;5074815;28;20408;-48
2022/10/23 05:56:40;;;;;;;28.33;17.58;;;10.80;99.90;;;;;;5075669;28;20535;-48
2022/10/23 05:59:06;;;;;;;27.40;16.13;;;10.70;99.90;;;;;;5092753;28;20032;-50
2022/10/23 06:01:32;;;;;;;25.77;16.95;;;10.80;99.90;;;;;;5094586;28;20032;-49
2022/10/23 06:03:59;;;;;;;26.95;16.45;;;10.90;99.90;;;;;;5093675;28;20465;-49
2022/10/23 06:06:25;;;;;;;30.45;16.02;;;10.50;99.90;;;;;;5094116;28;20047;-49
2022/10/23 06:08:50;;;;;;;23.10;15.20;;;10.60;99.90;;;;;;5094212;28;20040;-49
2022/10/23 06:11:16;;;;;;;23.83;15.43;;;10.60;99.90;;;;;;5095637;28;20407;-49
2022/10/23 06:13:43;;;;;;;26.75;15.27;;;10.70;99.90;;;;;;5094066;28;20084;-49
2022/10/23 06:16:14;;;;;;;26.95;15.82;;;10.90;99.90;;;;;;5082672;28;20063;-67
2022/10/23 06:18:40;;;;;;;24.60;15.45;;;10.90;99.90;;;;;;5093131;28;20412;-49
2022/10/23 06:21:06;;;;;;;24.38;17.02;;;10.80;99.90;;;;;;5094387;28;20059;-48
2022/10/23 06:23:33;;;;;;;24.70;15.65;;;10.60;99.90;;;;;;5094442;28;20517;-48
2022/10/23 06:25:59;;;;;;;26.25;16.90;;;10.50;99.90;;;;;;5093340;28;20047;-48
2022/10/23 06:28:25;;;;;;;25.05;16.00;;;10.50;99.90;;;;;;5094580;28;20036;-48
2022/10/23 06:30:51;;;;;;;26.05;15.52;;;10.50;99.90;;;;;;5094254;28;20036;-48
2022/10/23 06:33:16;;;;;;;25.98;16.30;;;10.50;99.90;;;;;;5080685;28;20086;-49
2022/10/23 06:35:42;;;;;;;22.67;16.08;;;10.60;99.90;;;;;;5072860;28;20037;-47
2022/10/23 06:38:09;;;;;;;25.40;16.05;;;10.70;99.90;;;;;;5071865;28;20437;-47
2022/10/23 06:40:35;;;;;;;27.15;15.60;;;10.70;99.90;;;;;;5093161;28;20036;-48
2022/10/23 06:43:01;;;;;;;23.13;15.32;;;10.60;99.90;;;;;;5093371;28;20119;-48
2022/10/23 06:45:28;;;;;;;22.23;14.63;;;10.90;99.90;;;;;;5093217;28;20456;-49
2022/10/23 06:47:54;;;;;;;22.35;14.70;;;10.80;99.90;;;;;;5083048;28;20408;-49
2022/10/23 06:50:20;;;;;;;22.75;15.88;;;10.90;99.90;;;;;;5079450;28;20048;-49
2022/10/23 06:52:46;;;;;;;24.70;15.60;;;10.90;99.90;;;;;;5082673;28;20043;-49
2022/10/23 06:55:12;;;;;;;25.27;14.95;;;10.90;99.90;;;;;;5088027;28;20040;-48
2022/10/23 06:57:37;;;;;;;22.58;16.23;;;10.90;99.90;;;;;;5084367;28;20044;-49
2022/10/23 07:00:04;;;;;;;21.00;13.63;;;10.80;99.90;;;;;;5092973;28;20065;-49
2022/10/23 07:02:29;;;;;;;22.75;16.08;;;10.70;99.90;;;;;;5083835;28;20106;-48
2022/10/23 07:04:55;;;;;;;26.38;15.25;;;10.90;99.90;;;;;;5085369;28;20452;-47
2022/10/23 07:07:21;;;;;;;24.42;16.33;;;10.70;99.90;;;;;;5083701;28;20040;-48
2022/10/23 07:09:46;;;;;;;24.83;15.38;;;10.90;99.90;;;;;;5080346;28;20047;-50
2022/10/23 07:12:12;;;;;;;22.23;15.35;;;10.90;99.90;;;;;;5082138;28;20036;-48
2022/10/23 07:14:37;;;;;;;23.40;15.73;;;10.80;99.90;;;;;;5080223;28;20538;-48
2022/10/23 07:17:03;;;;;;;22.67;15.30;;;11.10;99.90;;;;;;5087298;28;20036;-49
2022/10/23 07:19:29;;;;;;;22.58;14.05;;;11.10;99.90;;;;;;5080161;28;20127;-48
2022/10/23 07:21:55;;;;;;;24.48;15.13;;;11.20;99.90;;;;;;5074983;28;20040;-49
2022/10/23 07:24:21;;;;;;;22.50;15.00;;;10.90;99.90;;;;;;5079099;28;20071;-49
2022/10/23 07:26:46;;;;;;;23.67;15.63;;;11.10;99.90;;;;;;5092522;28;20048;-49
2022/10/23 07:29:12;;;;;;;26.05;15.57;;;11.20;99.90;;;;;;5085804;28;20086;-49
2022/10/23 07:31:38;;;;;;;26.00;16.15;;;11.20;99.90;;;;;;5080633;28;20101;-50
2022/10/23 07:34:05;;;;;;;22.45;14.57;;;11.10;99.90;;;;;;5084420;28;20068;-47
2022/10/23 07:36:31;;;;;;;23.63;15.07;;;11.00;99.90;;;;;;5085268;28;20040;-48
2022/10/23 07:38:56;;;;;;;25.27;14.85;;;11.30;99.90;;;;;;5086290;28;20043;-47
2022/10/23 07:41:22;;;;;;;20.73;14.30;;;11.20;99.90;;;;;;5077453;28;20112;-51
2022/10/23 07:43:48;;;;;;;24.33;15.13;;;11.10;99.90;;;;;;5080399;28;20055;-48
2022/10/23 07:46:13;;;;;;;29.35;16.38;;;11.50;99.90;;;;;;5092219;28;20036;-48
2022/10/23 07:48:40;;;;;;;25.88;15.98;;;11.50;99.90;;;;;;5092594;28;20115;-47
2022/10/23 07:51:09;;;;;;;25.58;15.85;;;11.20;99.90;;;;;;5092561;28;20552;-48
2022/10/23 07:53:36;;;;;;;24.88;15.50;;;11.50;99.90;;;;;;5092712;28;20082;-49
2022/10/23 07:56:08;;;;;;;26.15;15.43;;;11.70;99.90;;;;;;5091948;28;20093;-48
2022/10/23 07:58:34;;;;;;;24.00;14.93;;;11.30;99.90;;;;;;5090872;28;20036;-48
2022/10/23 08:01:02;;;;;;;25.98;15.98;;;11.40;99.90;;;;;;5086273;28;20051;-47
2022/10/23 08:03:32;;;;;;;25.13;15.43;;;11.40;99.90;;;;;;5075718;28;20496;-48
2022/10/23 08:05:58;;;;;;;26.73;15.73;;;11.60;99.90;;;;;;5075754;28;20035;-48
2022/10/23 08:08:25;;;;;;;25.40;16.00;;;11.50;99.90;;;;;;5092747;28;20043;-47
2022/10/23 08:10:53;;;;;;;29.45;18.35;;;11.90;99.90;;;;;;5092379;28;20031;-48
2022/10/23 08:13:19;;;;;;;27.92;16.75;;;11.70;99.90;;;;;;5091757;28;20484;-47
2022/10/23 08:15:46;;;;;;;27.58;16.95;;;11.90;99.90;;;;;;5092085;28;20047;-49
2022/10/23 08:18:12;;;;;;;27.23;17.58;;;12.00;99.90;;;;;;5086349;28;20048;-49
2022/10/23 08:20:39;;;;;;;25.05;17.60;;;11.70;99.90;;;;;;5087128;28;20040;-48
2022/10/23 08:23:05;;;;;;;25.15;16.48;;;12.20;99.90;;;;;;5090067;28;20035;-50
2022/10/23 08:25:31;;;;;;;25.23;16.33;;;12.20;99.90;;;;;;5091241;28;20039;-48
2022/10/23 08:27:57;;;;;;;27.02;15.20;;;11.80;99.90;;;;;;5087421;28;20068;-49
2022/10/23 08:30:23;;;;;;;22.27;16.40;;;11.90;99.90;;;;;;5086657;28;20120;-48
2022/10/23 08:32:48;;;;;;;25.83;14.70;;;12.10;99.90;;;;;;5081564;28;20032;-48
2022/10/23 08:35:14;;;;;;;24.95;15.48;;;11.90;99.90;;;;;;5084554;28;20036;-47
2022/10/23 08:37:40;;;;;;;20.90;14.35;;;11.90;99.90;;;;;;5082852;28;21284;-47
2022/10/23 08:40:06;;;;;;;21.85;14.15;;;12.10;99.90;;;;;;5085835;28;20032;-49
2022/10/23 08:42:36;;;;;;;20.88;14.70;;;12.10;99.90;;;;;;5085858;28;20044;-48
2022/10/23 08:45:18;;;;;;;23.88;14.80;;;12.10;99.90;;;;;;5091584;28;20119;-51
2022/10/23 08:47:49;;;;;;;20.70;14.07;;;12.30;99.90;;;;;;5088114;28;20036;-48
2022/10/23 08:50:33;;;;;;;22.47;15.40;;;12.60;99.90;;;;;;5080838;28;20404;-49
2022/10/23 08:53:48;;;;;;;23.13;15.43;;;12.20;99.90;;;;;;5089341;28;20588;-49
2022/10/23 08:56:36;;;;;;;22.50;13.88;;;12.40;99.90;;;;;;5087884;28;20048;-49
2022/10/23 08:59:28;;;;;;;21.88;14.90;;;12.80;99.90;;;;;;5089975;28;20032;-48
2022/10/23 09:02:08;;;;;;;23.10;14.73;;;12.80;99.90;;;;;;5091977;28;20055;-49
2022/10/23 09:04:34;;;;;;;20.20;14.18;;;12.40;99.90;;;;;;5091419;28;20039;-48
2022/10/23 09:07:08;;;;;;;22.30;14.98;;;12.50;99.90;;;;;;5091785;28;20519;-47
2022/10/23 09:09:49;;;;;;;21.65;13.32;;;13.00;99.90;;;;;;5077136;28;20040;-50
2022/10/23 09:12:19;;;;;;;20.05;13.43;;;13.00;99.90;;;;;;5091960;28;20044;-48
2022/10/23 09:15:00;;;;;;;24.13;14.00;;;12.90;99.90;;;;;;5089923;28;20051;-51
2022/10/23 09:17:36;;;;;;;21.93;14.47;;;12.90;99.90;;;;;;5090263;28;20075;-50
2022/10/23 09:20:25;;;;;;;21.58;14.07;;;12.80;99.90;;;;;;5091445;28;20048;-51
2022/10/23 09:22:57;;;;;;;24.15;13.98;;;13.10;99.90;;;;;;5089903;28;20070;-49
2022/10/23 09:25:26;;;;;;;18.58;13.35;;;13.40;99.90;;;;;;5071177;28;20040;-49
2022/10/23 09:27:58;;;;;;;20.30;12.70;;;13.00;99.90;;;;;;5077846;28;20040;-48
2022/10/23 09:30:28;;;;;;;20.13;14.40;;;13.10;99.90;;;;;;5087531;28;20380;-49
2022/10/23 09:32:54;;;;;;;23.85;14.48;;;13.10;99.90;;;;;;5091305;28;20496;-47
2022/10/23 09:35:25;;;;;;;19.90;13.75;;;13.20;99.90;;;;;;5091250;28;20072;-48
2022/10/23 09:37:54;;;;;;;19.80;13.77;;;13.40;99.90;;;;;;5091007;28;20072;-49
2022/10/23 09:40:32;;;;;;;21.45;15.15;;;13.50;99.90;;;;;;5094449;28;20051;-49
2022/10/23 09:43:12;;;;;;;20.25;13.80;;;13.70;99.90;;;;;;5095009;28;20043;-49
2022/10/23 09:45:41;;;;;;;20.38;14.02;;;13.30;99.90;;;;;;5074830;28;20044;-52
2022/10/23 09:48:18;;;;;;;20.83;12.93;;;13.30;99.90;;;;;;5075772;28;20386;-48
2022/10/23 09:50:59;;;;;;;22.52;14.68;;;13.70;99.90;;;;;;5085317;28;20473;-49
2022/10/23 09:53:25;;;;;;;20.92;12.57;;;13.80;99.90;;;;;;5089300;28;20086;-49
2022/10/23 09:55:55;;;;;;;24.08;13.57;;;13.60;99.90;;;;;;5083764;28;20504;-48
2022/10/23 09:58:42;;;;;;;20.52;12.90;;;13.50;99.90;;;;;;5086224;28;20033;-51
2022/10/23 10:01:22;;;;;;;22.38;13.10;;;13.90;99.90;;;;;;5087141;28;20063;-48
2022/10/23 10:03:50;;;;;;;23.55;12.40;;;13.50;99.90;;;;;;5074503;28;20559;-47
2022/10/23 10:06:28;;;;;;;18.67;11.93;;;13.90;99.90;;;;;;5073464;28;20045;-49
2022/10/23 10:08:59;;;;;;;18.88;11.40;;;13.60;99.90;;;;;;5087087;28;20036;-48
2022/10/23 10:11:43;;;;;;;20.85;11.27;;;13.80;99.90;;;;;;5094240;28;20471;-48
2022/10/23 10:14:36;;;;;;;18.92;11.52;;;13.70;99.90;;;;;;5093887;28;20032;-49
2022/10/23 10:17:12;;;;;;;17.90;10.95;;;13.80;99.90;;;;;;5094377;28;20102;-48
2022/10/23 10:19:53;;;;;;;18.67;10.73;;;13.80;99.90;;;;;;5092833;28;20052;-48
2022/10/23 10:22:41;;;;;;;19.45;10.38;;;14.20;99.90;;;;;;5075907;28;20524;-48
2022/10/23 10:25:26;;;;;;;17.20;9.95;;;14.30;99.90;;;;;;5094232;28;20028;-47
2022/10/23 10:28:10;;;;;;;14.80;9.75;;;14.30;99.90;;;;;;5094059;28;20051;-48
2022/10/23 10:31:01;;;;;;;19.92;9.73;;;14.00;99.90;;;;;;5094067;28;20475;-49
2022/10/23 10:33:46;;;;;;;16.15;9.52;;;14.50;99.90;;;;;;5085024;28;20036;-49
2022/10/23 10:36:32;;;;;;;17.15;9.70;;;14.30;99.90;;;;;;5082169;28;20064;-48
2022/10/23 10:39:07;;;;;;;14.55;9.07;;;14.30;99.90;;;;;;5082587;28;20097;-46
2022/10/23 10:41:45;;;;;;;16.50;9.15;;;14.40;99.90;;;;;;5083315;28;20036;-47
2022/10/23 10:44:22;;;;;;;16.67;9.68;;;14.60;99.90;;;;;;5083564;28;20033;-48
2022/10/23 10:46:58;;;;;;;15.65;9.25;;;14.80;99.90;;;;;;5086223;28;20051;-47
2022/10/23 10:49:43;;;;;;;15.75;8.82;;;14.70;99.90;;;;;;5084730;28;20472;-47
2022/10/23 10:52:36;;;;;;;13.13;8.10;;;14.80;99.90;;;;;;5083952;28;20036;-48
2022/10/23 10:55:08;;;;;;;12.18;7.38;;;14.80;99.90;;;;;;5082590;28;20082;-47
2022/10/23 10:57:38;;;;;;;13.95;7.65;;;14.50;99.90;;;;;;5087512;28;20040;-47
2022/10/23 11:00:12;;;;;;;16.23;7.47;;;14.60;99.90;;;;;;5085148;28;20042;-49
2022/10/23 11:02:41;;;;;;;16.15;7.78;;;14.90;99.90;;;;;;5085123;28;20093;-48
2022/10/23 11:05:28;;;;;;;14.88;7.40;;;14.70;99.90;;;;;;5093933;28;20441;-48
2022/10/23 11:08:21;;;;;;;10.70;6.97;;;15.00;99.90;;;;;;5081411;28;20610;-48
2022/10/23 11:10:51;;;;;;;11.82;6.97;;;15.00;99.90;;;;;;5083000;28;20384;-48
2022/10/23 11:13:36;;;;;;;14.70;7.00;;;14.90;99.90;;;;;;5080659;28;20174;-49
2022/10/23 11:16:16;;;;;;;14.45;7.45;;;15.10;99.90;;;;;;5082097;28;20036;-48
2022/10/23 11:18:47;;;;;;;12.77;7.35;;;15.20;99.90;;;;;;5083622;28;20381;-47
2022/10/23 11:21:24;;;;;;;14.25;7.05;;;14.90;99.90;;;;;;5082600;28;20526;-48
2022/10/23 11:24:23;;;;;;;11.30;6.85;;;15.00;99.90;;;;;;5085921;28;20032;-49
2022/10/23 11:27:16;;;;;;;14.05;6.53;;;14.90;99.90;;;;;;5088071;28;20059;-48
2022/10/23 11:30:00;;;;;;;11.65;6.43;;;15.30;99.90;;;;;;5087464;28;20032;-48
2022/10/23 11:32:51;;;;;;;13.55;6.28;;;15.00;99.90;;;;;;5088803;28;20040;-47
2022/10/23 11:35:36;;;;;;;13.52;6.55;;;15.30;99.90;;;;;;5086324;28;20084;-47
2022/10/23 11:38:33;;;;;;;13.65;6.28;;;15.20;99.90;;;;;;5093080;28;20059;-48
2022/10/23 11:41:02;;;;;;;12.20;6.30;;;15.20;99.90;;;;;;5072755;28;20040;-47
2022/10/23 11:44:04;;;;;;;11.77;5.70;;;15.30;99.90;;;;;;5072675;28;20037;-48
2022/10/23 11:46:37;;;;;;;12.73;5.90;;;15.40;99.90;;;;;;5072596;28;20049;-48
2022/10/23 11:49:17;;;;;;;10.85;5.95;;;15.50;99.90;;;;;;5072739;28;20036;-48
2022/10/23 11:51:43;;;;;;;12.77;5.80;;;15.10;99.90;;;;;;5078458;28;20439;-48
2022/10/23 11:54:09;;;;;;;10.85;5.45;;;15.20;99.90;;;;;;5082357;28;20032;-48
2022/10/23 11:56:36;;;;;;;12.20;6.00;;;15.20;99.90;;;;;;5082701;28;20425;-47
2022/10/23 11:59:27;;;;;;;11.13;6.53;;;15.50;99.90;;;;;;5080983;28;20033;-49
2022/10/23 12:01:55;;;;;;;13.02;7.40;;;15.50;99.90;;;;;;5080664;28;20046;-51
2022/10/23 12:04:32;;;;;;;13.30;7.28;;;15.50;99.90;;;;;;5086227;28;20071;-49
2022/10/23 12:07:13;;;;;;;13.57;7.70;;;15.50;99.90;;;;;;5085150;28;20067;-48
2022/10/23 12:09:50;;;;;;;14.52;6.93;;;15.30;99.90;;;;;;5085813;28;20047;-50
2022/10/23 12:12:30;;;;;;;11.23;6.15;;;15.20;99.90;;;;;;5081100;28;20119;-49
2022/10/23 12:15:11;;;;;;;10.73;5.50;;;15.30;99.90;;;;;;5082298;28;20539;-49
2022/10/23 12:17:41;;;;;;;13.05;5.63;;;15.50;99.90;;;;;;5087701;28;20047;-49
2022/10/23 12:20:07;;;;;;;10.50;5.47;;;15.20;99.90;;;;;;5081137;28;20484;-49
2022/10/23 12:23:10;;;;;;;10.77;6.10;;;15.20;99.90;;;;;;5085405;28;20132;-48
2022/10/23 12:26:00;;;;;;;9.77;5.07;;;15.40;99.90;;;;;;5081677;28;20032;-48
2022/10/23 12:28:57;;;;;;;10.07;5.47;;;15.20;99.90;;;;;;5083171;28;20078;-48
2022/10/23 12:31:41;;;;;;;11.32;5.57;;;15.10;99.90;;;;;;5082341;28;20119;-50
2022/10/23 12:34:43;;;;;;;7.82;5.28;;;15.40;99.90;;;;;;5083610;28;20045;-51
2022/10/23 12:37:42;;;;;;;12.88;5.97;;;15.10;99.90;;;;;;5086939;28;20540;-49
2022/10/23 12:40:09;;;;;;;11.27;6.03;;;15.30;99.90;;;;;;5084380;28;20476;-50
2022/10/23 12:42:36;;;;;;;11.48;6.65;;;15.30;99.90;;;;;;5083005;28;20032;-49
2022/10/23 12:45:17;;;;;;;9.70;6.20;;;15.30;99.90;;;;;;5084215;28;20051;-50
2022/10/23 12:47:45;;;;;;;11.82;6.22;;;15.20;99.90;;;;;;5086695;28;20040;-52
2022/10/23 12:50:22;;;;;;;11.95;5.65;;;15.20;99.90;;;;;;5086419;28;20125;-48
2022/10/23 12:52:55;;;;;;;10.50;5.57;;;15.20;99.90;;;;;;5080325;28;20044;-49
2022/10/23 12:55:22;;;;;;;11.32;5.45;;;15.20;99.90;;;;;;5084739;28;20040;-49